createdAt,value
2022-12-24T00:01:19.677Z,4.53
2022-12-24T00:03:47.945Z,4.64
2022-12-24T00:06:23.827Z,4.67
2022-12-24T00:08:51.680Z,4.74
2022-12-24T00:11:19.996Z,4.77
2022-12-24T00:13:49.896Z,4.83
2022-12-24T00:16:19.734Z,4.84
2022-12-24T00:18:47.304Z,5.00
2022-12-24T00:21:16.115Z,4.97
2022-12-24T00:23:43.472Z,4.99
2022-12-24T00:26:13.581Z,5.03
2022-12-24T00:28:41.300Z,5.01
2022-12-24T00:31:17.705Z,4.96
2022-12-24T00:33:47.218Z,5.26
2022-12-24T00:36:15.566Z,5.49
2022-12-24T00:38:49.377Z,6.08
2022-12-24T00:41:27.997Z,6.67
2022-12-24T00:43:56.893Z,7.63
2022-12-24T00:46:26.318Z,7.91
2022-12-24T00:48:53.967Z,8.30
2022-12-24T00:51:22.440Z,8.54
2022-12-24T00:53:50.763Z,8.76
2022-12-24T00:56:21.095Z,8.82
2022-12-24T00:58:48.426Z,8.96
2022-12-24T01:01:16.283Z,9.03
2022-12-24T01:03:43.795Z,9.15
2022-12-24T01:06:18.310Z,9.23
2022-12-24T01:08:45.635Z,9.38
2022-12-24T01:11:13.958Z,9.55
2022-12-24T01:13:41.129Z,9.56
2022-12-24T01:16:19.741Z,9.61
2022-12-24T01:18:47.178Z,9.71
2022-12-24T01:21:17.418Z,9.76
2022-12-24T01:23:44.745Z,10.05
2022-12-24T01:26:14.863Z,10.19
2022-12-24T01:28:42.299Z,10.28
2022-12-24T01:31:18.673Z,10.30
2022-12-24T01:33:49.365Z,10.20
2022-12-24T01:36:22.108Z,10.18
2022-12-24T01:38:50.190Z,10.13
2022-12-24T01:41:39.447Z,10.10
2022-12-24T01:44:37.087Z,10.17
2022-12-24T01:47:25.984Z,10.13
2022-12-24T01:49:59.689Z,10.09
2022-12-24T01:52:33.495Z,10.36
2022-12-24T01:55:15.073Z,10.62
2022-12-24T01:57:48.725Z,10.68
2022-12-24T02:00:16.798Z,10.72
2022-12-24T02:02:47.690Z,10.73
2022-12-24T02:05:30.945Z,10.79
2022-12-24T02:08:00.922Z,10.73
2022-12-24T02:10:28.043Z,10.73
2022-12-24T02:12:59.858Z,10.75
2022-12-24T02:15:35.411Z,10.67
2022-12-24T02:18:05.905Z,10.67
2022-12-24T02:20:54.592Z,10.66
2022-12-24T02:23:33.012Z,10.61
2022-12-24T02:26:15.177Z,10.71
2022-12-24T02:29:06.889Z,10.66
2022-12-24T02:31:58.982Z,10.53
2022-12-24T02:34:38.888Z,10.46
2022-12-24T02:37:15.358Z,10.51
2022-12-24T02:40:15.718Z,10.39
2022-12-24T02:42:49.230Z,10.40
2022-12-24T02:45:27.570Z,10.45
2022-12-24T02:47:56.267Z,10.47
2022-12-24T02:50:24.696Z,10.57
2022-12-24T02:52:52.188Z,10.62
2022-12-24T02:55:19.508Z,10.64
2022-12-24T02:58:05.299Z,10.57
2022-12-24T03:01:16.797Z,10.62
2022-12-24T03:03:47.069Z,10.61
2022-12-24T03:06:29.921Z,10.60
2022-12-24T03:09:33.107Z,10.62
2022-12-24T03:12:39.820Z,10.63
2022-12-24T03:15:20.480Z,10.68
2022-12-24T03:18:16.152Z,10.63
2022-12-24T03:21:00.649Z,10.73
2022-12-24T03:23:28.353Z,10.81
2022-12-24T03:26:01.730Z,10.71
2022-12-24T03:28:29.726Z,10.63
2022-12-24T03:31:03.210Z,10.65
2022-12-24T03:33:30.802Z,10.68
2022-12-24T03:36:00.007Z,10.71
2022-12-24T03:38:27.566Z,10.74
2022-12-24T03:40:57.135Z,10.82
2022-12-24T03:43:24.457Z,10.82
2022-12-24T03:45:51.482Z,10.79
2022-12-24T03:48:18.785Z,10.71
2022-12-24T03:50:45.941Z,10.71
2022-12-24T03:53:13.518Z,10.66
2022-12-24T03:55:40.691Z,10.64
2022-12-24T03:58:08.189Z,10.66
2022-12-24T04:00:35.188Z,10.67
2022-12-24T04:03:02.789Z,10.69
2022-12-24T04:05:29.962Z,10.68
2022-12-24T04:07:57.367Z,10.64
2022-12-24T04:10:24.406Z,10.64
2022-12-24T04:12:51.647Z,10.62
2022-12-24T04:15:18.814Z,10.60
2022-12-24T04:17:46.111Z,10.63
2022-12-24T04:20:13.205Z,10.61
2022-12-24T04:22:40.826Z,10.61
2022-12-24T04:25:08.576Z,10.69
2022-12-24T04:27:36.004Z,10.70
2022-12-24T04:30:03.498Z,10.76
2022-12-24T04:32:30.855Z,10.73
2022-12-24T04:34:57.824Z,10.62
2022-12-24T04:37:25.137Z,10.73
2022-12-24T04:39:52.306Z,10.70
2022-12-24T04:42:19.756Z,10.67
2022-12-24T04:44:51.245Z,10.68
2022-12-24T04:47:18.818Z,10.76
2022-12-24T04:49:45.825Z,10.78
2022-12-24T04:52:13.382Z,10.69
2022-12-24T04:54:40.662Z,10.76
2022-12-24T04:57:08.052Z,10.80
2022-12-24T04:59:35.018Z,10.88
2022-12-24T05:02:02.585Z,10.82
2022-12-24T05:04:29.816Z,10.79
2022-12-24T05:06:57.212Z,10.80
2022-12-24T05:09:24.822Z,10.88
2022-12-24T05:11:54.473Z,10.82
2022-12-24T05:14:21.416Z,10.84
2022-12-24T05:16:48.982Z,10.84
2022-12-24T05:19:16.307Z,10.78
2022-12-24T05:22:06.192Z,10.84
2022-12-24T05:24:51.793Z,10.80
2022-12-24T05:27:19.167Z,10.79
2022-12-24T05:29:46.406Z,10.76
2022-12-24T05:32:13.658Z,10.76
2022-12-24T05:34:40.635Z,10.64
2022-12-24T05:37:10.425Z,10.63
2022-12-24T05:39:37.532Z,10.58
2022-12-24T05:42:05.464Z,10.59
2022-12-24T05:44:32.568Z,10.57
2022-12-24T05:46:59.890Z,10.57
2022-12-24T05:49:27.202Z,10.59
2022-12-24T05:51:57.439Z,10.57
2022-12-24T05:54:24.831Z,10.50
2022-12-24T05:56:52.960Z,10.48
2022-12-24T05:59:19.958Z,10.45
2022-12-24T06:01:48.407Z,10.45
2022-12-24T06:04:20.492Z,10.46
2022-12-24T06:06:54.396Z,10.42
2022-12-24T06:09:21.597Z,10.40
2022-12-24T06:11:49.318Z,10.41
2022-12-24T06:14:16.294Z,10.44
2022-12-24T06:16:43.723Z,10.57
2022-12-24T06:19:10.776Z,10.54
2022-12-24T06:21:38.260Z,10.60
2022-12-24T06:24:05.699Z,10.61
2022-12-24T06:26:32.997Z,10.54
2022-12-24T06:29:02.277Z,10.54
2022-12-24T06:31:29.801Z,10.54
2022-12-24T06:33:57.511Z,10.52
2022-12-24T06:36:26.107Z,10.50
2022-12-24T06:38:56.319Z,10.57
2022-12-24T06:41:24.462Z,10.56
2022-12-24T06:43:53.081Z,10.55
2022-12-24T06:46:21.507Z,10.48
2022-12-24T06:48:49.253Z,10.40
2022-12-24T06:51:22.330Z,10.42
2022-12-24T06:53:52.911Z,10.50
2022-12-24T06:56:22.884Z,10.46
2022-12-24T06:58:50.448Z,10.41
2022-12-24T07:01:19.933Z,10.39
2022-12-24T07:03:47.564Z,10.44
2022-12-24T07:06:19.490Z,10.43
2022-12-24T07:08:46.874Z,10.49
2022-12-24T07:11:14.525Z,10.43
2022-12-24T07:13:41.654Z,10.48
2022-12-24T07:16:09.277Z,10.53
2022-12-24T07:18:36.906Z,10.49
2022-12-24T07:21:05.642Z,10.53
2022-12-24T07:23:33.062Z,10.56
2022-12-24T07:26:05.799Z,10.55
2022-12-24T07:28:33.573Z,10.57
2022-12-24T07:31:01.277Z,10.61
2022-12-24T07:33:32.173Z,10.61
2022-12-24T07:36:07.264Z,10.61
2022-12-24T07:38:35.378Z,10.64
2022-12-24T07:41:02.838Z,10.64
2022-12-24T07:43:30.110Z,10.57
2022-12-24T07:45:58.569Z,10.52
2022-12-24T07:48:27.275Z,10.45
2022-12-24T07:50:56.740Z,10.44
2022-12-24T07:53:26.091Z,10.44
2022-12-24T07:55:59.238Z,10.49
2022-12-24T07:58:28.748Z,10.70
2022-12-24T08:00:58.285Z,10.87
2022-12-24T08:03:25.642Z,10.81
2022-12-24T08:05:53.294Z,10.83
2022-12-24T08:08:20.652Z,10.79
2022-12-24T08:10:48.213Z,10.80
2022-12-24T08:13:16.301Z,10.83
2022-12-24T08:15:44.853Z,10.87
2022-12-24T08:18:12.665Z,10.94
2022-12-24T08:20:41.042Z,10.98
2022-12-24T08:23:09.251Z,10.97
2022-12-24T08:25:37.149Z,10.93
2022-12-24T08:28:05.681Z,10.96
2022-12-24T08:30:33.781Z,11.16
2022-12-24T08:33:01.050Z,11.38
2022-12-24T08:35:28.986Z,11.28
2022-12-24T08:37:56.187Z,11.26
2022-12-24T08:40:23.705Z,11.50
2022-12-24T08:42:50.956Z,11.69
2022-12-24T08:45:20.907Z,11.80
2022-12-24T08:47:50.185Z,11.84
2022-12-24T08:50:17.643Z,11.94
2022-12-24T08:52:44.843Z,12.07
2022-12-24T08:55:12.488Z,12.06
2022-12-24T08:57:39.527Z,12.26
2022-12-24T09:00:07.925Z,12.36
2022-12-24T09:02:35.762Z,12.35
2022-12-24T09:05:03.918Z,12.54
2022-12-24T09:07:31.128Z,12.67
2022-12-24T09:09:58.687Z,12.81
2022-12-24T09:12:25.675Z,12.81
2022-12-24T09:15:03.421Z,12.77
2022-12-24T09:17:31.756Z,12.90
2022-12-24T09:19:59.176Z,12.98
2022-12-24T09:22:28.380Z,12.97
2022-12-24T09:24:56.180Z,13.03
2022-12-24T09:27:23.557Z,13.12
2022-12-24T09:29:51.177Z,13.01
2022-12-24T09:32:18.784Z,13.23
2022-12-24T09:34:46.306Z,13.31
2022-12-24T09:37:13.483Z,13.22
2022-12-24T09:39:40.928Z,13.07
2022-12-24T09:42:35.543Z,13.23
2022-12-24T09:45:19.998Z,13.22
2022-12-24T09:47:55.768Z,13.10
2022-12-24T09:50:35.350Z,13.11
2022-12-24T09:53:12.646Z,13.05
2022-12-24T09:55:47.571Z,12.92
2022-12-24T09:58:29.791Z,12.97
2022-12-24T10:00:57.511Z,12.88
2022-12-24T10:03:24.863Z,12.82
2022-12-24T10:06:08.330Z,12.88
2022-12-24T10:08:55.860Z,12.87
2022-12-24T10:11:29.254Z,12.68
2022-12-24T10:14:11.876Z,12.61
2022-12-24T10:17:00.562Z,12.53
2022-12-24T10:19:40.044Z,12.55
2022-12-24T10:22:13.342Z,12.56
2022-12-24T10:25:13.996Z,12.58
2022-12-24T10:27:41.363Z,12.60
2022-12-24T10:30:20.918Z,12.57
2022-12-24T10:32:51.589Z,12.59
2022-12-24T10:35:24.619Z,12.61
2022-12-24T10:37:53.109Z,12.61
2022-12-24T10:40:33.885Z,12.57
2022-12-24T10:43:01.622Z,12.62
2022-12-24T10:45:40.086Z,12.68
2022-12-24T10:48:13.926Z,12.73
2022-12-24T10:50:55.046Z,12.74
2022-12-24T10:53:31.295Z,12.69
2022-12-24T10:56:09.375Z,12.73
2022-12-24T10:58:37.499Z,12.71
2022-12-24T11:01:05.538Z,12.75
2022-12-24T11:03:36.375Z,12.80
2022-12-24T11:06:15.414Z,12.83
2022-12-24T11:08:45.102Z,12.84
2022-12-24T11:11:20.846Z,12.85
2022-12-24T11:13:51.491Z,12.80
2022-12-24T11:16:36.770Z,12.82
2022-12-24T11:19:06.815Z,12.84
2022-12-24T11:21:37.950Z,12.85
2022-12-24T11:24:19.927Z,12.80
2022-12-24T11:26:47.195Z,12.82
2022-12-24T11:29:17.863Z,12.77
2022-12-24T11:31:49.155Z,12.77
2022-12-24T11:34:24.659Z,12.75
2022-12-24T11:36:53.607Z,12.75
2022-12-24T11:39:23.560Z,12.75
2022-12-24T11:41:51.561Z,12.77
2022-12-24T11:44:28.433Z,12.67
2022-12-24T11:46:59.295Z,12.71
2022-12-24T11:49:31.776Z,12.72
2022-12-24T11:52:11.166Z,12.71
2022-12-24T11:55:15.395Z,12.74
2022-12-24T11:57:54.891Z,12.59
2022-12-24T12:00:22.374Z,12.63
2022-12-24T12:02:54.700Z,12.70
2022-12-24T12:05:28.047Z,12.79
2022-12-24T12:08:20.275Z,12.87
2022-12-24T12:10:52.650Z,12.93
2022-12-24T12:13:27.849Z,12.92
2022-12-24T12:16:26.769Z,12.86
2022-12-24T12:19:13.090Z,12.90
2022-12-24T12:21:47.044Z,12.91
2022-12-24T12:24:31.643Z,12.81
2022-12-24T12:27:27.598Z,12.61
2022-12-24T12:30:12.940Z,12.47
2022-12-24T12:33:14.379Z,12.25
2022-12-24T12:35:43.614Z,12.09
2022-12-24T12:38:29.542Z,11.98
2022-12-24T12:41:32.178Z,11.85
2022-12-24T12:44:16.889Z,11.73
2022-12-24T12:47:02.486Z,11.73
2022-12-24T12:49:55.372Z,11.81
2022-12-24T12:52:43.669Z,11.84
2022-12-24T12:55:42.243Z,11.91
2022-12-24T12:59:01.391Z,11.98
2022-12-24T13:02:04.111Z,11.99
2022-12-24T13:04:34.305Z,11.94
2022-12-24T13:07:56.223Z,11.96
2022-12-24T13:10:35.247Z,11.90
2022-12-24T13:13:20.579Z,11.70
2022-12-24T13:16:09.725Z,11.72
2022-12-24T13:18:55.419Z,11.78
2022-12-24T13:21:25.997Z,11.75
2022-12-24T13:24:15.431Z,11.68
2022-12-24T13:26:43.605Z,11.55
2022-12-24T13:29:40.442Z,11.58
2022-12-24T13:32:20.163Z,11.68
2022-12-24T13:34:50.096Z,11.78
2022-12-24T13:37:21.337Z,11.77
2022-12-24T13:40:10.110Z,11.77
2022-12-24T13:42:49.421Z,11.79
2022-12-24T13:45:29.205Z,11.76
2022-12-24T13:48:13.144Z,11.76
2022-12-24T13:50:42.832Z,11.83
2022-12-24T13:53:19.287Z,11.88
2022-12-24T13:55:59.546Z,11.91
2022-12-24T13:58:26.833Z,11.92
2022-12-24T14:01:12.377Z,11.84
2022-12-24T14:03:47.826Z,11.68
2022-12-24T14:06:33.905Z,11.57
2022-12-24T14:09:10.172Z,11.40
2022-12-24T14:11:58.675Z,11.27
2022-12-24T14:14:37.664Z,11.18
2022-12-24T14:17:29.877Z,11.14
2022-12-24T14:20:02.069Z,11.13
2022-12-24T14:22:45.721Z,11.04
2022-12-24T14:25:24.943Z,10.93
2022-12-24T14:27:58.848Z,10.75
2022-12-24T14:30:30.880Z,10.68
2022-12-24T14:33:00.801Z,10.63
2022-12-24T14:35:37.061Z,10.56
2022-12-24T14:38:23.058Z,10.43
2022-12-24T14:40:53.135Z,10.41
2022-12-24T14:43:32.098Z,10.33
2022-12-24T14:46:31.897Z,10.21
2022-12-24T14:49:15.472Z,10.10
2022-12-24T14:51:54.966Z,10.05
2022-12-24T14:54:34.230Z,10.04
2022-12-24T14:57:10.354Z,9.95
2022-12-24T14:59:46.104Z,9.91
2022-12-24T15:02:41.450Z,9.94
2022-12-24T15:05:12.483Z,9.94
2022-12-24T15:07:47.632Z,9.90
2022-12-24T15:10:24.675Z,9.82
2022-12-24T15:12:52.878Z,9.78
2022-12-24T15:15:20.803Z,9.74
2022-12-24T15:17:48.508Z,9.64
2022-12-24T15:20:22.538Z,9.53
2022-12-24T15:22:56.317Z,9.35
2022-12-24T15:25:28.743Z,9.30
2022-12-24T15:27:56.045Z,9.13
2022-12-24T15:30:28.905Z,8.98
2022-12-24T15:32:58.028Z,8.83
2022-12-24T15:35:34.868Z,8.81
2022-12-24T15:38:04.216Z,8.67
2022-12-24T15:40:33.371Z,8.64
2022-12-24T15:43:00.995Z,8.61
2022-12-24T15:45:31.524Z,8.69
2022-12-24T15:48:06.457Z,8.63
2022-12-24T15:50:43.458Z,8.73
2022-12-24T15:53:19.416Z,9.04
2022-12-24T15:56:03.325Z,9.12
2022-12-24T15:58:38.764Z,9.22
2022-12-24T16:01:09.256Z,9.30
2022-12-24T16:03:39.093Z,9.31
2022-12-24T16:06:12.822Z,9.30
2022-12-24T16:08:41.862Z,9.26
2022-12-24T16:11:09.799Z,9.13
2022-12-24T16:13:43.703Z,9.29
2022-12-24T16:16:16.377Z,9.38
2022-12-24T16:18:46.302Z,9.41
2022-12-24T16:21:25.966Z,9.31
2022-12-24T16:23:56.006Z,9.25
2022-12-24T16:26:23.738Z,9.36
2022-12-24T16:28:50.918Z,9.31
2022-12-24T16:35:25.190Z,9.50
2022-12-24T16:37:55.753Z,9.47
2022-12-24T16:40:27.276Z,9.49
2022-12-24T16:43:15.653Z,9.44
2022-12-24T16:45:44.304Z,9.38
2022-12-24T16:48:22.407Z,9.22
2022-12-24T16:50:50.581Z,9.12
2022-12-24T16:53:19.811Z,9.08
2022-12-24T16:55:47.965Z,8.96
2022-12-24T16:58:17.320Z,8.89
2022-12-24T17:00:47.602Z,8.95
2022-12-24T17:03:15.288Z,8.86
2022-12-24T17:05:44.098Z,8.76
2022-12-24T17:08:13.103Z,8.74
2022-12-24T17:10:40.731Z,8.73
2022-12-24T17:13:08.044Z,8.74
2022-12-24T17:15:35.102Z,8.76
2022-12-24T17:18:03.223Z,8.76
2022-12-24T17:20:33.085Z,8.76
2022-12-24T17:23:00.651Z,8.74
2022-12-24T17:25:27.693Z,8.69
2022-12-24T17:27:57.378Z,8.75
2022-12-24T17:30:26.603Z,8.71
2022-12-24T17:32:54.343Z,8.77
2022-12-24T17:35:21.396Z,8.70
2022-12-24T17:37:48.710Z,8.53
2022-12-24T17:40:15.863Z,8.55
2022-12-24T17:42:45.421Z,8.52
2022-12-24T17:45:14.728Z,8.58
2022-12-24T17:47:42.096Z,8.58
2022-12-24T17:50:12.035Z,8.62
2022-12-24T17:52:42.539Z,8.57
2022-12-24T17:55:10.005Z,8.59
2022-12-24T17:57:37.373Z,8.50
2022-12-24T18:00:07.581Z,8.55
2022-12-24T18:02:38.326Z,8.52
2022-12-24T18:05:08.062Z,8.55
2022-12-24T18:07:37.861Z,8.43
2022-12-24T18:10:06.049Z,8.38
2022-12-24T18:12:33.744Z,8.39
2022-12-24T18:15:00.904Z,8.52
2022-12-24T18:17:28.321Z,8.65
2022-12-24T18:19:55.366Z,8.70
2022-12-24T18:22:22.782Z,8.74
2022-12-24T18:24:49.744Z,8.74
2022-12-24T18:27:17.085Z,8.72
2022-12-24T18:29:46.634Z,8.75
2022-12-24T18:32:17.122Z,8.84
2022-12-24T18:34:44.241Z,8.99
2022-12-24T18:37:11.925Z,9.01
2022-12-24T18:39:43.310Z,9.07
2022-12-24T18:42:14.557Z,9.25
2022-12-24T18:44:42.281Z,9.20
2022-12-24T18:47:09.943Z,9.29
2022-12-24T18:49:39.991Z,9.40
2022-12-24T18:52:11.635Z,9.31
2022-12-24T18:54:40.082Z,9.35
2022-12-24T18:57:07.873Z,9.32
2022-12-24T18:59:36.529Z,9.26
2022-12-24T19:02:06.440Z,9.31
2022-12-24T19:04:33.585Z,9.33
2022-12-24T19:07:01.241Z,9.47
2022-12-24T19:09:28.418Z,9.64
2022-12-24T19:11:55.842Z,9.70
2022-12-24T19:14:25.585Z,9.63
2022-12-24T19:16:52.902Z,9.70
2022-12-24T19:19:24.231Z,9.79
2022-12-24T19:21:51.972Z,9.81
2022-12-24T19:24:20.390Z,9.78
2022-12-24T19:26:50.242Z,9.72
2022-12-24T19:29:17.439Z,9.74
2022-12-24T19:31:47.399Z,9.67
2022-12-24T19:34:14.792Z,9.67
2022-12-24T19:36:44.392Z,9.63
2022-12-24T19:39:11.542Z,9.61
2022-12-24T19:41:38.910Z,9.59
2022-12-24T19:44:05.956Z,9.54
2022-12-24T19:46:37.131Z,9.47
2022-12-24T19:49:07.334Z,9.45
2022-12-24T19:51:36.065Z,9.44
2022-12-24T19:54:04.644Z,9.42
2022-12-24T19:56:33.316Z,9.37
2022-12-24T19:59:01.296Z,9.35
2022-12-24T20:01:31.553Z,9.33
2022-12-24T20:03:59.274Z,9.31
2022-12-24T20:06:30.699Z,9.28
2022-12-24T20:09:02.271Z,9.25
2022-12-24T20:11:32.822Z,9.20
2022-12-24T20:14:02.376Z,9.17
2022-12-24T20:16:30.224Z,9.14
2022-12-24T20:18:59.900Z,9.11
2022-12-24T20:21:27.986Z,9.16
2022-12-24T20:23:55.506Z,9.12
2022-12-24T20:26:27.022Z,9.05
2022-12-24T20:28:55.293Z,9.04
2022-12-24T20:31:24.221Z,9.02
2022-12-24T20:33:51.650Z,9.06
2022-12-24T20:36:22.143Z,9.01
2022-12-24T20:38:49.652Z,8.94
2022-12-24T20:41:20.074Z,8.89
2022-12-24T20:43:48.878Z,8.87
2022-12-24T20:46:18.639Z,8.85
2022-12-24T20:48:46.396Z,8.88
2022-12-24T20:51:23.323Z,8.92
2022-12-24T20:53:55.815Z,8.99
2022-12-24T20:56:23.955Z,9.13
2022-12-24T20:58:51.783Z,9.23
2022-12-24T21:01:24.582Z,9.26
2022-12-24T21:03:56.621Z,9.28
2022-12-24T21:06:25.305Z,9.38
2022-12-24T21:08:54.055Z,9.41
2022-12-24T21:11:41.149Z,9.41
2022-12-24T21:14:10.881Z,9.33
2022-12-24T21:16:39.773Z,9.29
2022-12-24T21:19:09.624Z,9.33
2022-12-24T21:21:39.402Z,9.32
2022-12-24T21:24:07.023Z,9.35
2022-12-24T21:26:35.171Z,9.29
2022-12-24T21:29:04.595Z,9.26
2022-12-24T21:31:33.083Z,9.40
2022-12-24T21:34:00.469Z,9.37
2022-12-24T21:36:28.433Z,9.44
2022-12-24T21:38:57.893Z,9.43
2022-12-24T21:41:26.101Z,9.40
2022-12-24T21:43:53.293Z,9.38
2022-12-24T21:46:25.247Z,9.39
2022-12-24T21:49:12.244Z,9.36
2022-12-24T21:51:44.156Z,9.28
2022-12-24T21:54:23.463Z,9.24
2022-12-24T21:57:10.886Z,9.20
2022-12-24T21:59:38.750Z,9.19
2022-12-24T22:02:07.923Z,9.20
2022-12-24T22:04:40.517Z,9.19
2022-12-24T22:07:31.263Z,9.19
2022-12-24T22:10:17.008Z,9.27
2022-12-24T22:12:44.437Z,9.31
2022-12-24T22:15:12.041Z,9.31
2022-12-24T22:17:39.828Z,9.27
2022-12-24T22:20:10.913Z,9.31
2022-12-24T22:22:38.344Z,9.39
2022-12-24T22:25:05.707Z,9.55
2022-12-24T22:27:33.202Z,9.70
2022-12-24T22:30:00.366Z,9.73
2022-12-24T22:32:30.076Z,9.67
2022-12-24T22:34:59.518Z,9.64
2022-12-24T22:37:27.202Z,9.59
2022-12-24T22:39:54.455Z,9.52
2022-12-24T22:42:22.022Z,9.42
2022-12-24T22:44:49.116Z,9.39
2022-12-24T22:47:18.859Z,9.42
2022-12-24T22:49:50.043Z,9.49
2022-12-24T22:52:18.071Z,9.51
2022-12-24T22:54:45.111Z,9.39
2022-12-24T22:57:12.816Z,9.38
2022-12-24T22:59:40.153Z,9.42
2022-12-24T23:02:08.155Z,9.35
2022-12-24T23:04:37.247Z,9.32
2022-12-24T23:07:10.508Z,9.24
2022-12-24T23:09:40.589Z,9.26
2022-12-24T23:12:08.399Z,9.22
2022-12-24T23:14:54.003Z,9.28
2022-12-24T23:17:23.427Z,9.30
2022-12-24T23:19:53.326Z,9.32
2022-12-24T23:22:21.421Z,9.27
2022-12-24T23:24:49.167Z,9.28
2022-12-24T23:27:16.878Z,9.28
2022-12-24T23:29:44.328Z,9.21
2022-12-24T23:32:14.350Z,9.19
2022-12-24T23:34:41.678Z,9.25
2022-12-24T23:37:09.192Z,9.28
2022-12-24T23:39:36.301Z,9.30
2022-12-24T23:42:03.699Z,9.27
2022-12-24T23:44:32.735Z,9.28
2022-12-24T23:47:02.805Z,9.21
2022-12-24T23:49:30.380Z,9.19
2022-12-24T23:51:57.711Z,9.09
2022-12-24T23:54:24.786Z,9.02
2022-12-24T23:56:52.462Z,8.98
2022-12-24T23:59:19.588Z,8.94
